createdAt,value
2022-08-25T00:00:11.137Z,22.15
2022-08-25T00:02:37.945Z,20.73
2022-08-25T00:05:05.491Z,21.65
2022-08-25T00:07:33.646Z,20.52
2022-08-25T00:10:00.401Z,20.70
2022-08-25T00:12:27.211Z,18.70
2022-08-25T00:14:55.044Z,22.85
2022-08-25T00:17:21.798Z,19.20
2022-08-25T00:19:48.542Z,21.80
2022-08-25T00:22:15.319Z,18.77
2022-08-25T00:24:42.354Z,15.60
2022-08-25T00:27:12.197Z,17.70
2022-08-25T00:29:39.619Z,17.25
2022-08-25T00:32:06.878Z,16.80
2022-08-25T00:34:37.349Z,20.33
2022-08-25T00:37:09.133Z,22.55
2022-08-25T00:39:37.880Z,21.83
2022-08-25T00:42:06.902Z,18.05
2022-08-25T00:44:43.708Z,16.20
2022-08-25T00:47:10.786Z,13.40
2022-08-25T00:49:46.048Z,14.00
2022-08-25T00:52:32.732Z,16.70
2022-08-25T00:55:13.399Z,16.70
2022-08-25T00:57:50.486Z,17.50
2022-08-25T01:00:24.688Z,18.10
2022-08-25T01:02:51.828Z,16.80
2022-08-25T01:05:19.555Z,16.45
2022-08-25T01:07:46.988Z,14.10
2022-08-25T01:10:14.272Z,14.45
2022-08-25T01:12:41.726Z,12.77
2022-08-25T01:15:11.748Z,16.55
2022-08-25T01:17:52.819Z,17.10
2022-08-25T01:20:23.858Z,14.05
2022-08-25T01:22:57.343Z,23.30
2022-08-25T01:25:43.547Z,20.45
2022-08-25T01:28:10.565Z,24.25
2022-08-25T01:30:37.613Z,20.50
2022-08-25T01:33:07.331Z,24.15
2022-08-25T01:35:34.757Z,26.33
2022-08-25T01:38:04.281Z,26.90
2022-08-25T01:40:32.314Z,25.88
2022-08-25T01:43:14.010Z,25.92
2022-08-25T01:45:46.629Z,24.63
2022-08-25T01:48:15.675Z,25.45
2022-08-25T01:50:43.973Z,27.45
2022-08-25T01:53:23.542Z,30.23
2022-08-25T01:55:54.210Z,30.60
2022-08-25T01:58:25.020Z,25.47
2022-08-25T02:00:55.755Z,31.63
2022-08-25T02:03:24.902Z,26.92
2022-08-25T02:05:53.857Z,21.50
2022-08-25T02:08:22.958Z,27.90
2022-08-25T02:10:51.635Z,26.10
2022-08-25T02:13:20.027Z,34.35
2022-08-25T02:15:56.892Z,35.22
2022-08-25T02:18:24.168Z,56.42
2022-08-25T02:20:51.365Z,56.10
2022-08-25T02:23:18.271Z,54.15
2022-08-25T02:25:45.123Z,31.77
2022-08-25T02:28:11.936Z,42.58
2022-08-25T02:30:41.892Z,33.20
2022-08-25T02:33:09.412Z,45.03
2022-08-25T02:35:36.570Z,40.80
2022-08-25T02:38:04.362Z,31.65
2022-08-25T02:40:31.433Z,34.80
2022-08-25T02:42:58.287Z,25.90
2022-08-25T02:45:25.254Z,25.60
2022-08-25T02:47:52.678Z,21.08
2022-08-25T02:50:19.558Z,23.42
2022-08-25T02:52:46.697Z,21.90
2022-08-25T02:55:14.150Z,22.25
2022-08-25T02:57:42.102Z,33.10
2022-08-25T03:00:12.719Z,37.47
2022-08-25T03:02:41.354Z,63.05
2022-08-25T03:05:10.097Z,66.60
2022-08-25T03:07:38.299Z,74.00
2022-08-25T03:10:08.708Z,67.15
2022-08-25T03:12:35.490Z,55.47
2022-08-25T03:15:02.344Z,65.38
2022-08-25T03:17:29.502Z,63.13
2022-08-25T03:19:57.108Z,53.42
2022-08-25T03:22:23.883Z,65.07
2022-08-25T03:24:50.685Z,68.97
2022-08-25T03:27:17.795Z,79.20
2022-08-25T03:29:45.253Z,69.53
2022-08-25T03:32:12.034Z,75.22
2022-08-25T03:34:39.071Z,71.43
2022-08-25T03:37:08.292Z,84.55
2022-08-25T03:39:35.193Z,81.38
2022-08-25T03:42:04.499Z,64.50
2022-08-25T03:44:31.239Z,48.28
2022-08-25T03:46:57.984Z,68.47
2022-08-25T03:49:24.800Z,48.78
2022-08-25T03:51:53.754Z,45.58
2022-08-25T03:54:24.723Z,38.35
2022-08-25T03:56:52.575Z,35.17
2022-08-25T03:59:19.621Z,54.85
2022-08-25T04:01:51.355Z,111.50
2022-08-25T04:04:20.848Z,131.95
2022-08-25T04:06:47.696Z,67.88
2022-08-25T04:09:14.439Z,31.52
2022-08-25T04:11:42.520Z,46.22
2022-08-25T04:14:09.797Z,36.50
2022-08-25T04:16:42.747Z,33.58
2022-08-25T04:19:12.126Z,41.85
2022-08-25T04:21:40.974Z,57.40
2022-08-25T04:24:10.960Z,53.83
2022-08-25T04:26:43.047Z,36.25
2022-08-25T04:29:12.863Z,47.65
2022-08-25T04:31:42.381Z,52.60
2022-08-25T04:34:28.419Z,50.70
2022-08-25T04:36:57.487Z,64.03
2022-08-25T04:39:24.374Z,58.42
2022-08-25T04:41:51.547Z,64.53
2022-08-25T04:44:18.480Z,39.50
2022-08-25T04:46:45.284Z,99.25
2022-08-25T04:49:12.028Z,84.43
2022-08-25T04:51:41.837Z,72.78
2022-08-25T04:54:12.734Z,72.13
2022-08-25T04:56:41.368Z,155.60
2022-08-25T04:59:12.633Z,56.63
2022-08-25T05:01:42.286Z,125.85
2022-08-25T05:04:14.450Z,102.82
2022-08-25T05:06:54.878Z,87.80
2022-08-25T05:09:21.831Z,58.08
2022-08-25T05:11:48.928Z,110.45
2022-08-25T05:14:18.299Z,54.00
2022-08-25T05:16:45.571Z,55.45
2022-08-25T05:19:12.379Z,108.25
2022-08-25T05:21:39.806Z,42.47
2022-08-25T05:24:07.694Z,51.83
2022-08-25T05:26:36.586Z,43.60
2022-08-25T05:29:05.361Z,37.25
2022-08-25T05:31:33.106Z,41.78
2022-08-25T05:34:00.818Z,22.63
2022-08-25T06:00:38.421Z,25.90
2022-08-25T06:03:05.211Z,16.52
2022-08-25T06:05:32.425Z,13.73
2022-08-25T06:07:59.472Z,13.80
2022-08-25T06:10:27.249Z,12.20
2022-08-25T06:12:54.395Z,11.45
2022-08-25T06:15:25.346Z,11.25
2022-08-25T06:17:56.678Z,10.65
2022-08-25T06:20:29.097Z,10.57
2022-08-25T06:22:56.642Z,11.35
2022-08-25T06:25:25.759Z,11.30
2022-08-25T06:27:55.014Z,10.98
2022-08-25T06:30:25.706Z,10.38
2022-08-25T06:32:55.611Z,11.50
2022-08-25T06:35:22.658Z,10.90
2022-08-25T06:37:49.445Z,10.40
2022-08-25T06:40:16.847Z,10.13
2022-08-25T06:42:48.258Z,10.15
2022-08-25T06:45:15.071Z,9.95
2022-08-25T06:47:42.751Z,11.05
2022-08-25T06:50:12.375Z,10.65
2022-08-25T06:52:39.163Z,10.70
2022-08-25T06:55:06.732Z,10.63
2022-08-25T06:57:35.699Z,10.48
2022-08-25T07:00:09.398Z,11.10
2022-08-25T07:02:36.431Z,11.90
2022-08-25T07:05:04.595Z,10.88
2022-08-25T07:07:44.165Z,11.00
2022-08-25T07:10:11.537Z,10.73
2022-08-25T07:12:38.767Z,10.43
2022-08-25T07:15:21.708Z,10.90
2022-08-25T07:17:49.674Z,11.57
2022-08-25T07:20:19.194Z,10.98
2022-08-25T07:22:47.156Z,10.52
2022-08-25T07:25:13.979Z,11.10
2022-08-25T07:27:42.481Z,11.73
2022-08-25T07:30:11.297Z,10.82
2022-08-25T07:35:27.240Z,12.90
2022-08-25T07:38:07.163Z,11.13
2022-08-25T07:40:38.495Z,11.60
2022-08-25T07:43:10.672Z,12.15
2022-08-25T07:45:46.799Z,12.13
2022-08-25T07:48:19.725Z,11.57
2022-08-25T07:50:48.362Z,11.20
2022-08-25T07:53:17.128Z,11.20
2022-08-25T07:55:45.191Z,10.88
2022-08-25T07:58:15.219Z,11.85
2022-08-25T08:00:42.435Z,11.30
2022-08-25T08:03:12.946Z,10.07
2022-08-25T08:05:50.831Z,10.90
2022-08-25T08:08:18.956Z,10.48
2022-08-25T08:11:03.311Z,11.20
2022-08-25T08:13:34.829Z,10.13
2022-08-25T08:16:13.236Z,11.73
2022-08-25T08:18:42.472Z,10.88
2022-08-25T08:21:19.282Z,11.43
2022-08-25T08:23:48.429Z,10.57
2022-08-25T08:26:17.094Z,10.23
2022-08-25T08:28:44.534Z,11.70
2022-08-25T08:31:22.432Z,11.30
2022-08-25T08:33:51.132Z,10.63
2022-08-25T08:36:18.751Z,13.05
2022-08-25T08:38:46.531Z,12.52
2022-08-25T08:42:09.507Z,11.77
2022-08-25T08:44:46.894Z,11.88
2022-08-25T08:47:55.906Z,12.25
2022-08-25T08:50:32.370Z,13.23
2022-08-25T08:53:20.117Z,12.63
2022-08-25T08:55:53.992Z,11.60
2022-08-25T08:58:27.046Z,12.50
2022-08-25T09:01:01.800Z,11.30
2022-08-25T09:04:20.158Z,12.02
2022-08-25T09:06:49.473Z,11.82
2022-08-25T09:09:27.038Z,12.30
2022-08-25T09:12:05.894Z,12.52
2022-08-25T09:15:16.351Z,12.18
2022-08-25T09:18:01.803Z,12.10
2022-08-25T09:21:04.145Z,11.88
2022-08-25T09:24:15.865Z,14.00
2022-08-25T09:27:14.908Z,12.85
2022-08-25T09:30:11.380Z,12.55
2022-08-25T09:32:49.057Z,12.32
2022-08-25T09:35:29.528Z,13.77
2022-08-25T09:38:03.037Z,14.38
2022-08-25T09:40:42.562Z,11.75
2022-08-25T09:43:53.024Z,11.30
2022-08-25T09:46:29.752Z,13.30
2022-08-25T09:49:10.833Z,12.80
2022-08-25T09:51:43.322Z,12.55
2022-08-25T09:54:13.167Z,12.20
2022-08-25T09:56:57.336Z,12.32
2022-08-25T09:59:35.759Z,12.30
2022-08-25T10:02:28.622Z,13.45
2022-08-25T10:04:56.952Z,12.80
2022-08-25T10:07:39.846Z,12.55
2022-08-25T10:10:23.232Z,13.40
2022-08-25T10:12:51.538Z,13.00
2022-08-25T10:15:29.768Z,12.50
2022-08-25T10:18:28.087Z,12.68
2022-08-25T10:21:10.809Z,13.50
2022-08-25T10:23:47.853Z,12.75
2022-08-25T10:26:46.131Z,21.98
2022-08-25T10:29:42.262Z,14.98
2022-08-25T10:32:47.139Z,14.95
2022-08-25T10:35:59.861Z,14.07
2022-08-25T10:38:36.038Z,15.38
2022-08-25T10:41:24.820Z,15.93
2022-08-25T10:44:53.269Z,15.50
2022-08-25T10:48:06.424Z,14.98
2022-08-25T10:50:45.536Z,13.80
2022-08-25T10:54:07.851Z,14.20
2022-08-25T10:56:41.300Z,14.38
2022-08-25T10:59:19.948Z,13.90
2022-08-25T11:02:25.822Z,14.13
2022-08-25T11:05:07.896Z,14.70
2022-08-25T11:07:41.715Z,13.77
2022-08-25T11:10:20.568Z,14.77
2022-08-25T11:12:56.310Z,15.25
2022-08-25T11:15:35.843Z,16.15
2022-08-25T11:18:14.799Z,15.25
2022-08-25T11:21:10.285Z,16.00
2022-08-25T11:23:53.864Z,16.55
2022-08-25T11:26:36.596Z,17.33
2022-08-25T11:29:13.585Z,17.10
2022-08-25T11:31:50.758Z,26.42
2022-08-25T11:34:21.656Z,15.57
2022-08-25T11:37:00.925Z,15.60
2022-08-25T11:40:13.704Z,18.10
2022-08-25T11:42:49.887Z,15.95
2022-08-25T11:45:54.162Z,16.02
2022-08-25T11:48:44.284Z,15.98
2022-08-25T11:51:31.410Z,15.02
2022-08-25T11:54:20.603Z,15.60
2022-08-25T11:57:06.464Z,15.10
2022-08-25T11:59:51.939Z,14.85
2022-08-25T12:02:39.075Z,15.52
2022-08-25T12:05:26.265Z,16.67
2022-08-25T12:08:11.538Z,17.23
2022-08-25T12:11:11.458Z,17.20
2022-08-25T12:13:50.850Z,17.02
2022-08-25T12:16:36.646Z,15.88
2022-08-25T12:19:35.943Z,16.98
2022-08-25T12:22:03.650Z,15.70
2022-08-25T12:24:42.470Z,14.73
2022-08-25T12:27:51.963Z,15.57
2022-08-25T12:30:45.583Z,15.77
2022-08-25T12:34:03.840Z,15.55
2022-08-25T12:36:34.312Z,15.10
2022-08-25T12:39:24.645Z,17.10
2022-08-25T12:42:07.424Z,16.75
2022-08-25T12:44:47.511Z,17.08
2022-08-25T12:47:23.532Z,17.30
2022-08-25T12:49:50.862Z,18.05
2022-08-25T12:52:21.872Z,17.98
2022-08-25T12:55:03.512Z,19.52
2022-08-25T12:57:40.947Z,19.88
2022-08-25T13:00:23.608Z,20.23
2022-08-25T13:03:35.775Z,17.95
2022-08-25T13:06:15.473Z,19.30
2022-08-25T13:09:08.311Z,19.02
2022-08-25T13:12:15.015Z,16.88
2022-08-25T13:14:44.517Z,16.40
2022-08-25T13:17:12.057Z,17.75
2022-08-25T13:19:39.420Z,17.50
2022-08-25T13:22:17.644Z,18.20
2022-08-25T13:24:47.441Z,17.92
2022-08-25T13:27:28.034Z,16.90
2022-08-25T13:29:59.708Z,17.65
2022-08-25T13:32:35.832Z,26.55
2022-08-25T13:35:20.091Z,16.77
2022-08-25T13:37:47.922Z,15.00
2022-08-25T13:40:34.391Z,16.15
2022-08-25T13:43:06.570Z,13.75
2022-08-25T13:45:42.449Z,14.68
2022-08-25T13:48:21.051Z,17.65
2022-08-25T13:50:52.033Z,12.98
2022-08-25T13:53:30.400Z,11.40
2022-08-25T13:56:00.883Z,11.00
2022-08-25T13:58:45.043Z,10.20
2022-08-25T14:01:49.018Z,10.18
2022-08-25T14:04:51.728Z,10.15
2022-08-25T14:07:22.785Z,10.50
2022-08-25T14:10:01.777Z,10.32
2022-08-25T14:12:37.664Z,11.55
2022-08-25T14:15:20.064Z,9.60
2022-08-25T14:18:03.903Z,10.40
2022-08-25T14:20:34.095Z,9.40
2022-08-25T14:23:10.260Z,9.50
2022-08-25T14:25:40.713Z,9.30
2022-08-25T14:28:16.868Z,8.98
2022-08-25T14:30:52.040Z,8.65
2022-08-25T14:33:23.107Z,9.07
2022-08-25T14:35:53.757Z,8.80
2022-08-25T14:38:22.453Z,9.40
2022-08-25T14:40:50.262Z,9.07
2022-08-25T14:43:17.787Z,9.48
2022-08-25T14:45:48.924Z,9.50
2022-08-25T14:48:34.190Z,9.48
2022-08-25T14:51:04.625Z,9.05
2022-08-25T14:53:33.040Z,9.25
2022-08-25T14:56:00.834Z,9.32
2022-08-25T14:58:35.304Z,9.00
2022-08-25T15:01:17.389Z,9.15
2022-08-25T15:03:47.958Z,9.00
2022-08-25T15:06:17.197Z,9.27
2022-08-25T15:09:03.220Z,9.80
2022-08-25T15:11:31.439Z,8.93
2022-08-25T15:14:02.368Z,9.20
2022-08-25T15:16:37.825Z,8.80
2022-08-25T15:19:14.247Z,8.75
2022-08-25T15:21:44.666Z,9.05
2022-08-25T15:24:17.410Z,9.20
2022-08-25T15:26:59.239Z,9.20
2022-08-25T15:29:30.013Z,8.93
2022-08-25T15:32:08.782Z,9.35
2022-08-25T15:34:40.458Z,9.13
2022-08-25T15:37:16.418Z,9.38
2022-08-25T15:39:45.269Z,9.02
2022-08-25T15:42:12.552Z,9.55
2022-08-25T15:44:40.192Z,8.73
2022-08-25T15:47:08.756Z,9.23
2022-08-25T15:49:39.682Z,8.73
2022-08-25T15:52:06.691Z,9.10
2022-08-25T15:54:33.659Z,8.93
2022-08-25T15:57:03.558Z,8.80
2022-08-25T15:59:35.512Z,10.10
2022-08-25T16:02:03.097Z,8.60
2022-08-25T16:04:31.515Z,8.95
2022-08-25T16:07:00.085Z,8.80
2022-08-25T16:09:27.993Z,8.48
2022-08-25T16:12:00.547Z,8.82
2022-08-25T16:14:30.946Z,8.80
2022-08-25T16:16:58.265Z,8.77
2022-08-25T16:19:28.868Z,9.10
2022-08-25T16:21:56.573Z,8.80
2022-08-25T16:24:24.182Z,10.00
2022-08-25T16:26:51.639Z,9.10
2022-08-25T16:29:19.983Z,8.90
2022-08-25T16:31:53.036Z,8.90
2022-08-25T16:34:24.509Z,8.57
2022-08-25T16:36:55.322Z,8.98
2022-08-25T16:39:23.892Z,8.65
2022-08-25T16:41:51.855Z,8.68
2022-08-25T16:44:22.543Z,8.70
2022-08-25T16:46:54.019Z,8.70
2022-08-25T16:49:21.708Z,8.35
2022-08-25T16:51:52.217Z,8.65
2022-08-25T16:54:43.508Z,9.40
2022-08-25T16:57:11.007Z,8.73
2022-08-25T16:59:37.786Z,8.85
2022-08-25T17:02:06.402Z,8.93
2022-08-25T17:04:33.217Z,9.00
2022-08-25T17:07:00.218Z,8.45
2022-08-25T17:09:29.549Z,8.20
2022-08-25T17:11:57.237Z,8.15
2022-08-25T17:14:24.949Z,8.40
2022-08-25T17:16:54.979Z,8.38
2022-08-25T17:19:24.752Z,8.75
2022-08-25T17:21:54.324Z,8.43
2022-08-25T17:24:29.254Z,8.63
2022-08-25T17:26:58.707Z,8.40
2022-08-25T17:29:25.520Z,8.73
2022-08-25T17:31:53.344Z,8.73
2022-08-25T17:34:23.216Z,9.02
2022-08-25T17:36:51.369Z,8.50
2022-08-25T17:39:19.672Z,8.57
2022-08-25T17:44:16.034Z,9.00
2022-08-25T17:46:47.157Z,8.80
2022-08-25T17:49:17.678Z,8.93
2022-08-25T17:51:45.438Z,8.82
2022-08-25T17:54:12.865Z,9.13
2022-08-25T17:56:39.814Z,9.40
2022-08-25T17:59:06.709Z,8.50
2022-08-25T18:01:40.430Z,9.40
2022-08-25T18:04:16.886Z,8.57
2022-08-25T18:06:46.453Z,8.70
2022-08-25T18:09:14.288Z,8.70
2022-08-25T18:11:41.111Z,9.05
2022-08-25T18:14:07.884Z,9.25
2022-08-25T18:16:38.762Z,10.25
2022-08-25T18:19:06.570Z,10.68
2022-08-25T18:24:04.236Z,10.93
2022-08-25T18:26:31.003Z,10.57
2022-08-25T18:28:58.682Z,11.55
2022-08-25T18:31:25.677Z,10.82
2022-08-25T18:33:52.478Z,10.13
2022-08-25T18:36:20.678Z,10.70
2022-08-25T18:39:07.088Z,10.80
2022-08-25T18:41:38.385Z,11.00
2022-08-25T18:44:07.786Z,12.20
2022-08-25T18:46:35.036Z,12.05
2022-08-25T18:49:02.910Z,13.05
2022-08-25T18:51:32.937Z,11.90
2022-08-25T18:54:01.061Z,12.47
2022-08-25T18:56:28.650Z,12.05
2022-08-25T18:58:56.563Z,12.27
2022-08-25T19:01:24.284Z,13.25
2022-08-25T19:03:51.627Z,13.43
2022-08-25T19:06:19.510Z,13.63
2022-08-25T19:08:48.585Z,11.57
2022-08-25T19:11:16.888Z,12.38
2022-08-25T19:13:44.726Z,13.05
2022-08-25T19:16:20.284Z,13.52
2022-08-25T19:18:48.627Z,13.35
2022-08-25T19:21:15.601Z,13.88
2022-08-25T19:23:42.447Z,14.52
2022-08-25T19:26:16.961Z,13.63
2022-08-25T19:28:48.618Z,12.50
2022-08-25T19:31:20.924Z,13.02
2022-08-25T19:33:49.616Z,13.95
2022-08-25T19:36:23.049Z,13.60
2022-08-25T19:38:52.329Z,13.18
2022-08-25T19:41:21.387Z,14.65
2022-08-25T19:43:56.657Z,13.82
2022-08-25T19:46:35.387Z,14.50
2022-08-25T19:49:08.805Z,13.02
2022-08-25T19:51:50.608Z,14.70
2022-08-25T19:54:27.447Z,15.00
2022-08-25T19:56:55.623Z,14.80
2022-08-25T19:59:40.737Z,15.15
2022-08-25T20:02:15.922Z,14.70
2022-08-25T20:04:49.932Z,17.25
2022-08-25T20:07:19.863Z,15.73
2022-08-25T20:09:48.505Z,16.45
2022-08-25T20:12:16.758Z,15.48
2022-08-25T20:14:44.766Z,14.77
2022-08-25T20:17:14.504Z,15.30
2022-08-25T20:19:52.896Z,16.35
2022-08-25T20:22:24.998Z,17.50
2022-08-25T20:24:56.225Z,19.23
2022-08-25T20:27:34.135Z,17.10
2022-08-25T20:30:02.839Z,17.05
2022-08-25T20:32:31.975Z,17.58
2022-08-25T20:34:58.951Z,17.38
2022-08-25T20:37:25.941Z,17.33
2022-08-25T20:39:53.020Z,16.98
2022-08-25T20:42:20.459Z,19.02
2022-08-25T20:44:47.267Z,19.25
2022-08-25T20:47:14.984Z,18.55
2022-08-25T20:49:45.181Z,19.77
2022-08-25T20:52:14.682Z,18.52
2022-08-25T20:54:47.006Z,16.75
2022-08-25T20:57:17.783Z,17.73
2022-08-25T20:59:44.579Z,15.57
2022-08-25T21:02:13.937Z,16.38
2022-08-25T21:04:48.963Z,18.85
2022-08-25T21:07:18.410Z,16.50
2022-08-25T21:09:45.615Z,15.73
2022-08-25T21:12:12.431Z,15.52
2022-08-25T21:14:41.630Z,18.45
2022-08-25T21:17:12.060Z,18.55
2022-08-25T21:19:39.936Z,15.48
2022-08-25T21:22:07.428Z,16.17
2022-08-25T21:24:34.480Z,12.60
2022-08-25T21:27:03.632Z,11.73
2022-08-25T21:29:32.807Z,13.05
2022-08-25T21:31:59.985Z,12.18
2022-08-25T21:34:28.846Z,12.55
2022-08-25T21:36:59.386Z,13.00
2022-08-25T21:39:29.554Z,12.27
2022-08-25T21:41:59.903Z,13.95
2022-08-25T21:44:27.824Z,13.88
2022-08-25T21:46:54.931Z,15.13
2022-08-25T21:49:23.326Z,16.75
2022-08-25T21:52:02.378Z,16.60
2022-08-25T21:54:31.742Z,21.60
2022-08-25T21:57:02.701Z,20.02
2022-08-25T21:59:37.605Z,21.97
2022-08-25T22:02:07.987Z,23.77
2022-08-25T22:07:03.485Z,29.02
2022-08-25T22:09:31.004Z,27.63
2022-08-25T22:11:58.732Z,29.70
2022-08-25T22:14:27.542Z,34.20
2022-08-25T22:16:55.297Z,34.55
2022-08-25T22:19:23.515Z,37.20
2022-08-25T22:21:52.853Z,37.97
2022-08-25T22:24:20.765Z,35.00
2022-08-25T22:26:48.550Z,35.88
2022-08-25T22:29:24.907Z,40.72
2022-08-25T22:31:59.336Z,37.47
2022-08-25T22:34:32.338Z,34.92
2022-08-25T22:37:01.576Z,35.75
2022-08-25T22:39:29.591Z,48.80
2022-08-25T22:41:56.831Z,46.13
2022-08-25T22:44:25.583Z,56.28
2022-08-25T22:46:53.338Z,53.58
2022-08-25T22:49:20.220Z,63.90
2022-08-25T22:51:47.715Z,55.95
2022-08-25T22:54:16.208Z,50.55
2022-08-25T22:56:43.598Z,54.97
2022-08-25T22:59:13.025Z,50.83
2022-08-25T23:01:43.239Z,56.78
2022-08-25T23:04:11.075Z,54.47
2022-08-25T23:06:38.165Z,57.60
2022-08-25T23:09:07.929Z,51.85
2022-08-25T23:11:35.787Z,56.33
2022-08-25T23:14:09.972Z,66.93
2022-08-25T23:16:39.269Z,62.38
2022-08-25T23:19:06.584Z,56.65
2022-08-25T23:21:52.914Z,54.38
2022-08-25T23:24:29.352Z,71.80
2022-08-25T23:26:58.476Z,58.95
2022-08-25T23:29:25.352Z,56.35
2022-08-25T23:31:53.544Z,51.95
2022-08-25T23:34:21.659Z,54.47
2022-08-25T23:36:49.036Z,59.78
2022-08-25T23:39:16.072Z,57.47
2022-08-25T23:41:42.864Z,54.22
2022-08-25T23:44:11.818Z,51.88
2022-08-25T23:46:44.801Z,59.55
2022-08-25T23:49:11.735Z,52.13
2022-08-25T23:51:40.951Z,51.22
2022-08-25T23:54:10.788Z,55.00
2022-08-25T23:56:42.222Z,54.27
2022-08-25T23:59:11.492Z,57.92
